createdAt,value
2018-01-31T01:53:26.637Z,12.40
2018-01-31T01:55:54.762Z,11.77
2018-01-31T01:58:38.620Z,13.63
2018-01-31T02:01:06.786Z,12.73
2018-01-31T02:03:34.886Z,12.37
2018-01-31T02:06:03.002Z,11.97
2018-01-31T02:08:31.106Z,13.07
2018-01-31T02:10:59.206Z,12.87
2018-01-31T02:13:27.329Z,12.47
2018-01-31T02:15:55.441Z,13.50
2018-01-31T02:18:23.555Z,13.03
2018-01-31T02:20:51.654Z,13.30
2018-01-31T02:23:19.766Z,13.90
2018-01-31T02:25:47.888Z,14.23
2018-01-31T02:28:29.940Z,13.33
2018-01-31T02:30:58.038Z,15.53
2018-01-31T02:33:26.150Z,14.57
2018-01-31T02:36:09.813Z,14.07
2018-01-31T02:38:49.697Z,14.63
2018-01-31T02:41:17.830Z,15.20
2018-01-31T02:43:46.069Z,14.43
2018-01-31T02:46:14.286Z,14.63
2018-01-31T02:48:43.430Z,15.43
2018-01-31T02:51:11.561Z,14.07
2018-01-31T02:53:40.590Z,13.80
2018-01-31T02:56:08.706Z,15.77
2018-01-31T02:58:36.824Z,15.13
2018-01-31T03:01:04.961Z,14.13
2018-01-31T03:03:33.064Z,14.43
2018-01-31T03:06:01.192Z,14.13
2018-01-31T03:08:29.301Z,14.43
2018-01-31T03:11:08.633Z,14.37
2018-01-31T03:13:36.748Z,14.43
2018-01-31T03:16:04.868Z,13.90
2018-01-31T03:18:32.996Z,13.13
2018-01-31T03:21:01.108Z,14.57
2018-01-31T03:23:29.252Z,12.80
2018-01-31T03:25:57.389Z,14.40
2018-01-31T03:28:41.799Z,14.43
2018-01-31T03:31:09.899Z,14.77
2018-01-31T03:33:38.002Z,12.97
2018-01-31T03:36:06.120Z,13.97
2018-01-31T03:38:34.222Z,13.57
2018-01-31T03:41:02.364Z,14.00
2018-01-31T03:43:30.504Z,13.57
2018-01-31T03:45:58.636Z,12.57
2018-01-31T03:48:39.287Z,12.67
2018-01-31T03:51:07.402Z,12.27
2018-01-31T03:53:35.528Z,12.20
2018-01-31T03:56:03.649Z,12.80
2018-01-31T03:58:31.750Z,11.87
2018-01-31T04:00:59.867Z,12.00
2018-01-31T04:03:27.982Z,11.43
2018-01-31T04:05:56.170Z,11.03
2018-01-31T04:08:24.279Z,11.37
2018-01-31T04:10:52.398Z,11.33
2018-01-31T04:13:20.521Z,9.40
2018-01-31T04:15:48.622Z,8.70
2018-01-31T04:18:16.734Z,8.73
2018-01-31T04:20:44.834Z,8.53
2018-01-31T04:23:12.939Z,7.70
2018-01-31T04:25:52.872Z,7.20
2018-01-31T04:28:35.678Z,6.97
2018-01-31T04:31:03.794Z,6.50
2018-01-31T04:33:31.899Z,6.57
2018-01-31T04:36:00.043Z,6.90
2018-01-31T04:38:28.152Z,6.47
2018-01-31T04:40:56.249Z,5.70
2018-01-31T04:43:24.356Z,5.70
2018-01-31T04:45:52.446Z,5.90
2018-01-31T04:48:20.581Z,5.30
2018-01-31T04:50:48.673Z,5.83
2018-01-31T04:53:16.766Z,5.67
2018-01-31T04:55:44.894Z,5.30
2018-01-31T04:58:12.984Z,5.50
2018-01-31T05:00:41.124Z,5.10
2018-01-31T05:03:09.216Z,4.70
2018-01-31T05:05:48.692Z,4.10
2018-01-31T05:08:16.809Z,4.27
2018-01-31T05:10:44.908Z,4.10
2018-01-31T05:13:13.018Z,3.30
2018-01-31T05:15:42.084Z,3.40
2018-01-31T05:18:10.183Z,3.40
2018-01-31T05:20:38.343Z,3.50
2018-01-31T05:23:06.412Z,3.37
2018-01-31T05:25:34.494Z,3.27
2018-01-31T05:28:17.950Z,3.40
2018-01-31T05:30:46.060Z,3.40
2018-01-31T05:33:14.264Z,3.40
2018-01-31T05:35:42.373Z,3.43
2018-01-31T05:38:10.485Z,3.23
2018-01-31T05:40:38.596Z,3.47
2018-01-31T05:43:19.961Z,3.60
2018-01-31T05:45:48.065Z,3.90
2018-01-31T05:48:26.712Z,3.90
2018-01-31T05:50:54.875Z,3.80
2018-01-31T05:55:13.640Z,3.17
2018-01-31T05:57:41.732Z,3.87
2018-01-31T06:00:09.856Z,2.90
2018-01-31T06:02:37.960Z,4.00
2018-01-31T06:05:06.060Z,3.57
2018-01-31T06:07:34.174Z,3.40
2018-01-31T06:10:02.285Z,3.67
2018-01-31T06:12:30.409Z,3.30
2018-01-31T06:14:58.498Z,3.63
2018-01-31T06:17:26.635Z,4.10
2018-01-31T06:19:54.739Z,3.60
2018-01-31T06:22:40.042Z,4.13
2018-01-31T06:25:24.112Z,4.27
2018-01-31T06:30:35.836Z,4.03
2018-01-31T06:33:03.936Z,3.50
2018-01-31T06:35:32.057Z,3.70
2018-01-31T06:38:00.169Z,3.80
2018-01-31T06:40:28.274Z,3.73
2018-01-31T06:42:56.389Z,3.60
2018-01-31T06:45:24.503Z,3.83
2018-01-31T06:47:52.602Z,3.00
2018-01-31T06:50:20.704Z,2.77
2018-01-31T06:52:48.828Z,2.90
2018-01-31T06:55:17.874Z,2.60
2018-01-31T06:57:59.514Z,2.60
2018-01-31T07:00:27.610Z,3.00
2018-01-31T07:02:56.718Z,3.10
2018-01-31T07:05:24.848Z,2.60
2018-01-31T07:07:52.942Z,2.47
2018-01-31T07:10:21.062Z,2.33
2018-01-31T07:12:49.158Z,2.57
2018-01-31T07:15:17.341Z,2.33
2018-01-31T07:17:45.439Z,2.37
2018-01-31T07:20:13.552Z,2.30
2018-01-31T07:22:41.679Z,2.50
2018-01-31T07:25:09.776Z,2.03
2018-01-31T07:27:37.935Z,2.30
2018-01-31T07:30:24.006Z,2.50
2018-01-31T07:32:52.157Z,2.47
2018-01-31T07:35:20.248Z,2.20
2018-01-31T07:37:49.286Z,2.30
2018-01-31T07:40:17.395Z,2.00
2018-01-31T07:42:45.490Z,2.00
2018-01-31T07:45:13.618Z,2.13
2018-01-31T07:47:41.736Z,2.20
2018-01-31T07:50:09.875Z,2.00
2018-01-31T07:52:37.984Z,1.80
2018-01-31T07:55:06.094Z,1.90
2018-01-31T07:57:34.209Z,1.70
2018-01-31T08:00:02.339Z,2.00
2018-01-31T08:02:41.103Z,1.73
2018-01-31T08:05:09.214Z,1.57
2018-01-31T08:07:37.317Z,1.93
2018-01-31T08:10:05.422Z,1.70
2018-01-31T08:12:33.524Z,1.50
2018-01-31T08:15:01.653Z,1.60
2018-01-31T08:17:29.748Z,1.60
2018-01-31T08:19:57.859Z,1.70
2018-01-31T08:22:25.967Z,1.60
2018-01-31T08:24:54.084Z,1.43
2018-01-31T08:27:22.190Z,1.27
2018-01-31T08:29:59.205Z,1.80
2018-01-31T08:32:42.525Z,1.20
2018-01-31T08:35:10.653Z,1.20
2018-01-31T08:37:38.742Z,1.20
2018-01-31T08:40:06.892Z,1.20
2018-01-31T08:42:35.004Z,1.10
2018-01-31T08:45:03.147Z,1.23
2018-01-31T08:47:31.264Z,1.00
2018-01-31T08:49:59.375Z,1.20
2018-01-31T08:52:27.492Z,1.17
2018-01-31T08:54:55.602Z,1.20
2018-01-31T08:57:24.655Z,1.00
2018-01-31T08:59:52.788Z,0.90
2018-01-31T09:02:20.892Z,1.10
2018-01-31T09:04:49.010Z,1.07
2018-01-31T09:07:17.134Z,0.93
2018-01-31T09:09:45.239Z,1.00
2018-01-31T09:12:27.853Z,1.13
2018-01-31T09:14:56.086Z,1.13
2018-01-31T09:17:24.191Z,1.10
2018-01-31T09:19:52.323Z,0.90
2018-01-31T09:22:20.433Z,0.90
2018-01-31T09:24:48.536Z,0.80
2018-01-31T09:27:16.630Z,0.90
2018-01-31T09:30:01.923Z,1.00
2018-01-31T09:32:30.053Z,1.00
2018-01-31T09:34:58.240Z,1.10
2018-01-31T09:37:26.348Z,0.73
2018-01-31T09:39:54.461Z,1.00
2018-01-31T09:42:22.583Z,0.90
2018-01-31T09:44:50.666Z,0.90
2018-01-31T09:47:27.996Z,0.80
2018-01-31T09:49:56.090Z,1.10
2018-01-31T09:52:27.009Z,1.00
2018-01-31T09:54:52.313Z,1.00
2018-01-31T09:57:20.403Z,0.90
2018-01-31T09:59:48.530Z,0.90
2018-01-31T10:02:16.650Z,1.00
2018-01-31T10:04:44.756Z,1.10
2018-01-31T10:07:12.854Z,0.77
2018-01-31T10:09:40.963Z,0.90
2018-01-31T10:12:09.072Z,1.10
2018-01-31T10:14:37.174Z,0.77
2018-01-31T10:17:05.277Z,0.80
2018-01-31T10:19:33.382Z,1.00
2018-01-31T10:22:16.388Z,1.40
2018-01-31T10:24:44.478Z,0.77
2018-01-31T10:27:12.570Z,0.97
2018-01-31T10:29:56.970Z,1.00
2018-01-31T10:32:25.133Z,0.87
2018-01-31T10:34:53.188Z,0.90
2018-01-31T10:37:21.307Z,1.10
2018-01-31T10:39:49.426Z,1.10
2018-01-31T10:42:17.549Z,1.10
2018-01-31T10:44:45.646Z,1.10
2018-01-31T10:47:13.754Z,0.90
2018-01-31T10:49:41.871Z,0.90
2018-01-31T10:52:09.972Z,0.87
2018-01-31T10:57:28.988Z,1.00
2018-01-31T10:59:34.263Z,1.03
2018-01-31T11:02:13.841Z,1.00
2018-01-31T11:04:41.934Z,0.90
2018-01-31T11:07:10.053Z,0.93
2018-01-31T11:09:38.161Z,1.00
2018-01-31T11:12:06.264Z,0.90
2018-01-31T11:14:34.369Z,0.90
2018-01-31T11:17:02.480Z,0.90
2018-01-31T11:19:30.566Z,0.90
2018-01-31T11:21:58.670Z,1.10
2018-01-31T11:24:26.840Z,0.73
2018-01-31T11:26:54.921Z,1.17
2018-01-31T11:29:32.928Z,0.97
2018-01-31T11:32:01.026Z,0.97
2018-01-31T11:34:29.130Z,0.90
2018-01-31T11:37:14.113Z,0.77
2018-01-31T11:39:42.228Z,0.97
2018-01-31T11:42:10.333Z,0.90
2018-01-31T11:44:38.453Z,1.00
2018-01-31T11:47:06.559Z,0.80
2018-01-31T11:49:34.654Z,0.87
2018-01-31T11:52:02.760Z,0.80
2018-01-31T11:54:30.880Z,0.80
2018-01-31T11:56:58.970Z,0.80
2018-01-31T11:59:27.074Z,0.90
2018-01-31T12:01:55.166Z,0.77
2018-01-31T12:04:24.209Z,1.00
2018-01-31T12:06:52.302Z,0.90
2018-01-31T12:09:32.040Z,1.10
2018-01-31T12:12:00.148Z,1.30
2018-01-31T12:14:39.781Z,1.73
2018-01-31T12:17:09.857Z,1.30
2018-01-31T12:19:49.900Z,1.70
2018-01-31T12:22:24.056Z,2.43
2018-01-31T12:25:03.989Z,3.00
2018-01-31T12:27:43.938Z,2.37
2018-01-31T12:30:23.918Z,2.33
2018-01-31T12:33:03.945Z,1.80
2018-01-31T12:35:43.712Z,1.70
2018-01-31T12:38:24.416Z,3.13
2018-01-31T12:41:10.512Z,4.83
2018-01-31T12:43:38.122Z,5.77
2018-01-31T12:46:17.988Z,6.43
2018-01-31T12:48:57.763Z,5.53
2018-01-31T12:51:37.491Z,4.20
2018-01-31T12:54:17.210Z,2.43
2018-01-31T12:56:57.105Z,1.60
2018-01-31T12:59:36.943Z,1.33
2018-01-31T13:02:16.668Z,1.10
2018-01-31T13:04:56.382Z,1.20
2018-01-31T13:10:52.686Z,1.00
2018-01-31T13:13:32.399Z,1.10
2018-01-31T13:16:13.041Z,1.00
2018-01-31T13:18:52.937Z,0.97
2018-01-31T13:21:33.617Z,0.87
2018-01-31T13:24:13.476Z,1.30
2018-01-31T13:26:53.212Z,1.00
2018-01-31T13:29:31.448Z,0.90
2018-01-31T13:32:11.331Z,1.10
2018-01-31T13:37:59.692Z,1.40
2018-01-31T13:40:39.424Z,1.87
2018-01-31T13:43:19.176Z,3.30
2018-01-31T13:45:58.902Z,2.83
2018-01-31T13:48:38.618Z,3.10
2018-01-31T13:51:18.368Z,2.80
2018-01-31T13:53:58.072Z,3.90
2018-01-31T13:56:37.737Z,3.80
2018-01-31T13:59:17.606Z,3.20
2018-01-31T14:01:57.446Z,2.00
2018-01-31T14:04:37.226Z,1.53
2018-01-31T14:10:22.737Z,1.27
2018-01-31T14:13:02.585Z,1.10
2018-01-31T14:15:42.344Z,1.00
2018-01-31T14:18:22.068Z,1.30
2018-01-31T14:21:01.925Z,1.10
2018-01-31T14:23:41.780Z,1.23
2018-01-31T14:26:21.603Z,1.00
2018-01-31T14:29:01.310Z,1.20
2018-01-31T14:31:43.450Z,1.10
2018-01-31T14:34:23.223Z,0.87
2018-01-31T14:36:50.788Z,0.90
2018-01-31T14:39:18.327Z,1.10
2018-01-31T14:41:45.878Z,0.87
2018-01-31T14:44:13.439Z,0.60
2018-01-31T14:46:41.011Z,0.70
2018-01-31T14:49:08.589Z,0.87
2018-01-31T14:51:37.079Z,0.90
2018-01-31T14:54:04.640Z,0.90
2018-01-31T14:56:32.236Z,0.80
2018-01-31T14:58:59.778Z,0.90
2018-01-31T15:04:04.352Z,0.90
2018-01-31T15:06:31.912Z,1.27
2018-01-31T15:08:59.479Z,1.23
2018-01-31T15:11:27.033Z,1.40
2018-01-31T15:13:54.581Z,1.20
2018-01-31T15:16:22.145Z,1.17
2018-01-31T15:18:49.706Z,1.20
2018-01-31T15:21:17.265Z,1.17
2018-01-31T15:23:44.846Z,1.50
2018-01-31T15:26:12.426Z,1.63
2018-01-31T15:28:54.251Z,1.03
2018-01-31T15:31:21.867Z,1.00
2018-01-31T15:33:49.420Z,1.03
2018-01-31T15:36:16.979Z,2.23
2018-01-31T15:38:44.530Z,2.27
2018-01-31T15:41:22.330Z,2.67
2018-01-31T15:43:49.881Z,3.07
2018-01-31T15:46:17.444Z,2.43
2018-01-31T15:48:45.013Z,2.77
2018-01-31T15:51:12.580Z,3.00
2018-01-31T15:53:40.149Z,2.43
2018-01-31T15:56:07.698Z,2.87
2018-01-31T15:58:35.303Z,2.60
2018-01-31T16:01:02.840Z,3.17
2018-01-31T16:03:30.400Z,3.33
2018-01-31T16:05:59.929Z,3.17
2018-01-31T16:08:28.419Z,2.40
2018-01-31T16:11:13.506Z,3.00
2018-01-31T16:13:42.071Z,1.90
2018-01-31T16:16:09.628Z,1.70
2018-01-31T16:18:49.486Z,2.00
2018-01-31T16:21:26.135Z,1.73
2018-01-31T16:23:54.248Z,1.97
2018-01-31T16:26:22.347Z,2.17
2018-01-31T16:29:05.371Z,2.17
2018-01-31T16:31:45.222Z,2.40
2018-01-31T16:34:14.287Z,3.23
2018-01-31T16:36:54.412Z,2.70
2018-01-31T16:42:25.095Z,3.10
2018-01-31T16:45:07.879Z,3.00
2018-01-31T16:47:36.012Z,2.50
2018-01-31T16:50:15.005Z,2.30
2018-01-31T16:55:40.187Z,1.90
2018-01-31T16:58:31.299Z,1.40
2018-01-31T17:01:12.463Z,1.23
2018-01-31T17:03:55.559Z,1.70
2018-01-31T17:06:24.639Z,1.40
2018-01-31T17:08:52.746Z,1.30
2018-01-31T17:11:21.812Z,1.50
2018-01-31T17:13:49.901Z,1.93
2018-01-31T17:16:18.023Z,2.60
2018-01-31T17:18:46.132Z,2.70
2018-01-31T17:21:14.206Z,5.00
2018-01-31T17:23:53.980Z,6.77
2018-01-31T17:26:23.773Z,2.70
2018-01-31T17:29:01.056Z,2.20
2018-01-31T17:31:29.149Z,2.53
2018-01-31T17:33:57.267Z,1.23
2018-01-31T17:36:25.368Z,1.60
2018-01-31T17:38:53.456Z,1.57
2018-01-31T17:41:21.552Z,1.60
2018-01-31T17:43:49.681Z,3.07
2018-01-31T17:46:17.771Z,2.10
2018-01-31T17:48:45.877Z,1.40
2018-01-31T17:51:13.988Z,1.43
2018-01-31T17:53:42.089Z,1.63
2018-01-31T17:56:19.764Z,3.30
2018-01-31T17:58:47.859Z,1.30
2018-01-31T18:01:15.969Z,1.87
2018-01-31T18:03:44.067Z,1.43
2018-01-31T18:06:12.170Z,2.07
2018-01-31T18:08:40.298Z,1.70
2018-01-31T18:11:08.418Z,1.83
2018-01-31T18:13:36.511Z,1.80
2018-01-31T18:16:04.620Z,1.90
2018-01-31T18:18:32.710Z,2.33
2018-01-31T18:21:00.801Z,1.67
2018-01-31T18:23:28.882Z,3.50
2018-01-31T18:25:57.033Z,2.70
2018-01-31T18:28:35.282Z,2.53
2018-01-31T18:31:04.364Z,2.70
2018-01-31T18:33:32.456Z,2.47
2018-01-31T18:36:14.715Z,2.50
2018-01-31T18:38:42.913Z,3.10
2018-01-31T18:41:11.004Z,3.57
2018-01-31T18:43:39.087Z,2.57
2018-01-31T18:46:07.166Z,4.10
2018-01-31T18:48:36.192Z,2.83
2018-01-31T18:51:04.282Z,2.50
2018-01-31T18:53:32.388Z,2.67
2018-01-31T18:56:01.410Z,2.83
2018-01-31T18:58:29.529Z,2.30
2018-01-31T19:00:57.620Z,4.47
2018-01-31T19:03:25.712Z,2.70
2018-01-31T19:05:53.859Z,2.60
2018-01-31T19:08:22.027Z,2.50
2018-01-31T19:11:03.585Z,2.57
2018-01-31T19:13:31.744Z,2.10
2018-01-31T19:15:59.831Z,1.30
2018-01-31T19:18:27.919Z,1.40
2018-01-31T19:20:56.018Z,1.70
2018-01-31T19:23:25.071Z,1.57
2018-01-31T19:25:53.168Z,1.50
2018-01-31T19:28:37.067Z,1.60
2018-01-31T19:31:05.147Z,2.07
2018-01-31T19:33:33.248Z,2.20
2018-01-31T19:36:10.851Z,1.80
2018-01-31T19:38:52.186Z,2.20
2018-01-31T19:41:20.296Z,2.10
2018-01-31T19:44:00.644Z,2.80
2018-01-31T19:46:43.512Z,3.57
2018-01-31T19:49:11.660Z,3.33
2018-01-31T19:51:39.794Z,3.60
2018-01-31T19:54:07.907Z,4.80
2018-01-31T19:56:36.213Z,4.40
2018-01-31T19:59:05.381Z,4.13
2018-01-31T20:01:33.445Z,4.20
2018-01-31T20:04:01.559Z,8.77
2018-01-31T20:06:30.589Z,4.87
2018-01-31T20:08:59.661Z,4.30
2018-01-31T20:11:27.752Z,5.20
2018-01-31T20:13:55.874Z,4.67
2018-01-31T20:16:24.907Z,4.60
2018-01-31T20:18:52.995Z,6.97
2018-01-31T20:21:21.204Z,4.67
2018-01-31T20:24:04.685Z,13.87
2018-01-31T20:26:32.786Z,5.70
2018-01-31T20:29:12.084Z,5.10
2018-01-31T20:31:40.200Z,6.17
2018-01-31T20:34:08.287Z,6.27
2018-01-31T20:36:37.341Z,6.10
2018-01-31T20:39:05.432Z,6.97
2018-01-31T20:41:33.530Z,5.87
2018-01-31T20:44:01.622Z,5.83
2018-01-31T20:46:29.741Z,5.60
2018-01-31T20:48:57.873Z,5.80
2018-01-31T20:51:25.963Z,5.50
2018-01-31T20:53:54.068Z,5.70
2018-01-31T20:56:22.158Z,5.57
2018-01-31T20:58:50.276Z,6.17
2018-01-31T21:01:28.940Z,5.07
2018-01-31T21:03:57.075Z,4.87
2018-01-31T21:06:25.176Z,5.20
2018-01-31T21:08:53.295Z,5.30
2018-01-31T21:11:21.404Z,4.63
2018-01-31T21:13:49.505Z,4.73
2018-01-31T21:16:18.570Z,5.07
2018-01-31T21:18:55.564Z,4.80
2018-01-31T21:21:37.673Z,5.30
2018-01-31T21:24:05.754Z,4.57
2018-01-31T21:26:33.853Z,5.20
2018-01-31T21:29:17.388Z,5.00
2018-01-31T21:31:45.505Z,5.30
2018-01-31T21:34:13.823Z,4.83
2018-01-31T21:36:56.636Z,5.03
2018-01-31T21:39:24.707Z,5.40
2018-01-31T21:41:52.804Z,5.03
2018-01-31T21:44:20.917Z,5.20
2018-01-31T21:46:49.021Z,5.30
2018-01-31T21:49:17.128Z,5.30
2018-01-31T21:51:57.086Z,5.50
2018-01-31T21:54:25.201Z,5.27
2018-01-31T21:56:53.296Z,5.37
2018-01-31T21:59:22.359Z,5.67
2018-01-31T22:01:50.446Z,5.17
2018-01-31T22:04:18.572Z,5.57
2018-01-31T22:06:46.676Z,6.27
2018-01-31T22:09:14.763Z,5.57
2018-01-31T22:11:42.876Z,6.03
2018-01-31T22:14:27.611Z,5.80
2018-01-31T22:16:55.715Z,6.20
2018-01-31T22:19:23.836Z,5.73
2018-01-31T22:21:51.936Z,6.30
2018-01-31T22:24:21.048Z,6.20
2018-01-31T22:26:50.074Z,6.87
2018-01-31T22:29:28.806Z,7.03
2018-01-31T22:31:56.886Z,6.07
2018-01-31T22:34:24.986Z,6.50
2018-01-31T22:36:53.105Z,6.83
2018-01-31T22:39:21.194Z,6.63
2018-01-31T22:41:49.304Z,6.10
2018-01-31T22:44:29.384Z,6.60
2018-01-31T22:46:57.497Z,6.87
2018-01-31T22:49:25.602Z,7.00
2018-01-31T22:51:53.705Z,6.43
2018-01-31T22:54:21.799Z,6.50
2018-01-31T22:56:49.908Z,6.43
2018-01-31T22:59:18.007Z,6.63
2018-01-31T23:01:46.112Z,6.37
2018-01-31T23:04:14.210Z,6.67
2018-01-31T23:06:42.330Z,5.43
2018-01-31T23:09:10.433Z,6.77
2018-01-31T23:11:43.466Z,6.50
2018-01-31T23:14:17.054Z,6.60
2018-01-31T23:16:55.852Z,5.80
2018-01-31T23:19:23.957Z,5.93
2018-01-31T23:21:52.050Z,6.70
2018-01-31T23:24:20.219Z,6.33
2018-01-31T23:26:48.272Z,6.07
2018-01-31T23:29:31.874Z,5.53
2018-01-31T23:31:59.973Z,5.90
2018-01-31T23:34:28.062Z,5.60
2018-01-31T23:37:11.569Z,5.47
2018-01-31T23:39:39.667Z,5.67
2018-01-31T23:42:08.748Z,5.43
2018-01-31T23:44:36.848Z,4.97
2018-01-31T23:47:04.976Z,4.80
2018-01-31T23:49:49.681Z,5.53
2018-01-31T23:52:18.737Z,4.97
2018-01-31T23:54:46.841Z,5.33
2018-01-31T23:57:15.879Z,5.73
2018-01-31T23:59:44.021Z,5.37
